sensor_id;sensor_type;location;lat;lon;timestamp;P1;durP1;ratioP1;P2;durP2;ratioP2
28174;SDS011;59417;44.788;10.334;2023-05-07T00:01:01;12.02;;;10.80;;
28174;SDS011;59417;44.788;10.334;2023-05-07T00:03:27;11.90;;;10.63;;
28174;SDS011;59417;44.788;10.334;2023-05-07T00:05:53;14.18;;;12.43;;
28174;SDS011;59417;44.788;10.334;2023-05-07T00:08:19;13.77;;;11.30;;
28174;SDS011;59417;44.788;10.334;2023-05-07T00:10:45;14.23;;;12.70;;
28174;SDS011;59417;44.788;10.334;2023-05-07T00:13:11;12.77;;;11.50;;
28174;SDS011;59417;44.788;10.334;2023-05-07T00:15:37;13.40;;;11.70;;
28174;SDS011;59417;44.788;10.334;2023-05-07T00:18:03;12.48;;;11.18;;
28174;SDS011;59417;44.788;10.334;2023-05-07T00:20:28;15.13;;;11.75;;
28174;SDS011;59417;44.788;10.334;2023-05-07T00:22:55;15.60;;;11.40;;
28174;SDS011;59417;44.788;10.334;2023-05-07T00:25:20;14.23;;;10.50;;
28174;SDS011;59417;44.788;10.334;2023-05-07T00:27:46;12.30;;;11.00;;
28174;SDS011;59417;44.788;10.334;2023-05-07T00:30:12;12.57;;;10.23;;
28174;SDS011;59417;44.788;10.334;2023-05-07T00:32:38;10.73;;;9.63;;
28174;SDS011;59417;44.788;10.334;2023-05-07T00:35:04;12.25;;;10.10;;
28174;SDS011;59417;44.788;10.334;2023-05-07T00:37:30;11.07;;;9.95;;
28174;SDS011;59417;44.788;10.334;2023-05-07T00:39:57;12.82;;;10.40;;
28174;SDS011;59417;44.788;10.334;2023-05-07T00:42:23;11.40;;;10.13;;
28174;SDS011;59417;44.788;10.334;2023-05-07T00:44:49;15.32;;;11.13;;
28174;SDS011;59417;44.788;10.334;2023-05-07T00:47:15;14.40;;;9.73;;
28174;SDS011;59417;44.788;10.334;2023-05-07T00:49:41;10.85;;;9.75;;
28174;SDS011;59417;44.788;10.334;2023-05-07T00:52:13;13.40;;;10.50;;
28174;SDS011;59417;44.788;10.334;2023-05-07T00:54:40;14.25;;;11.38;;
28174;SDS011;59417;44.788;10.334;2023-05-07T00:57:06;12.90;;;11.20;;
28174;SDS011;59417;44.788;10.334;2023-05-07T00:59:34;14.73;;;11.02;;
28174;SDS011;59417;44.788;10.334;2023-05-07T01:02:00;15.65;;;11.68;;
28174;SDS011;59417;44.788;10.334;2023-05-07T01:04:26;15.93;;;11.20;;
28174;SDS011;59417;44.788;10.334;2023-05-07T01:06:52;13.50;;;11.60;;
28174;SDS011;59417;44.788;10.334;2023-05-07T01:09:21;12.07;;;10.33;;
28174;SDS011;59417;44.788;10.334;2023-05-07T01:11:48;13.73;;;10.55;;
28174;SDS011;59417;44.788;10.334;2023-05-07T01:14:15;11.35;;;10.20;;
28174;SDS011;59417;44.788;10.334;2023-05-07T01:16:42;13.85;;;10.43;;
28174;SDS011;59417;44.788;10.334;2023-05-07T01:19:08;11.95;;;10.80;;
28174;SDS011;59417;44.788;10.334;2023-05-07T01:21:38;17.23;;;11.40;;
28174;SDS011;59417;44.788;10.334;2023-05-07T01:24:05;14.20;;;11.55;;
28174;SDS011;59417;44.788;10.334;2023-05-07T01:26:32;15.50;;;10.60;;
28174;SDS011;59417;44.788;10.334;2023-05-07T01:28:57;11.77;;;10.25;;
28174;SDS011;59417;44.788;10.334;2023-05-07T01:31:23;12.23;;;11.02;;
28174;SDS011;59417;44.788;10.334;2023-05-07T01:33:50;13.23;;;11.57;;
28174;SDS011;59417;44.788;10.334;2023-05-07T01:36:17;12.13;;;10.90;;
28174;SDS011;59417;44.788;10.334;2023-05-07T01:38:43;12.70;;;10.75;;
28174;SDS011;59417;44.788;10.334;2023-05-07T01:41:11;15.13;;;11.98;;
28174;SDS011;59417;44.788;10.334;2023-05-07T01:43:37;13.02;;;11.13;;
28174;SDS011;59417;44.788;10.334;2023-05-07T01:46:03;16.50;;;11.18;;
28174;SDS011;59417;44.788;10.334;2023-05-07T01:48:29;15.70;;;11.30;;
28174;SDS011;59417;44.788;10.334;2023-05-07T01:50:55;13.45;;;10.88;;
28174;SDS011;59417;44.788;10.334;2023-05-07T01:53:20;12.68;;;11.00;;
28174;SDS011;59417;44.788;10.334;2023-05-07T01:55:46;11.63;;;10.48;;
28174;SDS011;59417;44.788;10.334;2023-05-07T01:58:12;13.40;;;11.23;;
28174;SDS011;59417;44.788;10.334;2023-05-07T02:00:38;12.30;;;11.05;;
28174;SDS011;59417;44.788;10.334;2023-05-07T02:03:05;15.02;;;12.52;;
28174;SDS011;59417;44.788;10.334;2023-05-07T02:05:40;17.73;;;15.07;;
28174;SDS011;59417;44.788;10.334;2023-05-07T02:08:24;20.23;;;15.77;;
28174;SDS011;59417;44.788;10.334;2023-05-07T02:10:50;20.00;;;16.20;;
28174;SDS011;59417;44.788;10.334;2023-05-07T02:13:16;16.73;;;13.95;;
28174;SDS011;59417;44.788;10.334;2023-05-07T02:15:42;17.50;;;15.70;;
28174;SDS011;59417;44.788;10.334;2023-05-07T02:18:09;20.15;;;17.60;;
28174;SDS011;59417;44.788;10.334;2023-05-07T02:20:35;23.58;;;17.23;;
28174;SDS011;59417;44.788;10.334;2023-05-07T02:23:01;26.02;;;20.45;;
28174;SDS011;59417;44.788;10.334;2023-05-07T02:25:28;29.05;;;22.70;;
28174;SDS011;59417;44.788;10.334;2023-05-07T02:27:55;26.48;;;23.10;;
28174;SDS011;59417;44.788;10.334;2023-05-07T02:30:26;29.27;;;22.42;;
28174;SDS011;59417;44.788;10.334;2023-05-07T02:32:55;28.80;;;24.75;;
28174;SDS011;59417;44.788;10.334;2023-05-07T02:35:20;33.70;;;25.60;;
28174;SDS011;59417;44.788;10.334;2023-05-07T02:37:46;29.30;;;23.13;;
28174;SDS011;59417;44.788;10.334;2023-05-07T02:40:13;32.88;;;26.23;;
28174;SDS011;59417;44.788;10.334;2023-05-07T02:42:38;32.15;;;26.92;;
28174;SDS011;59417;44.788;10.334;2023-05-07T02:45:04;30.35;;;24.33;;
28174;SDS011;59417;44.788;10.334;2023-05-07T02:47:30;21.60;;;16.75;;
28174;SDS011;59417;44.788;10.334;2023-05-07T02:49:58;19.40;;;15.63;;
28174;SDS011;59417;44.788;10.334;2023-05-07T02:52:23;23.73;;;15.98;;
28174;SDS011;59417;44.788;10.334;2023-05-07T02:54:49;15.40;;;12.48;;
28174;SDS011;59417;44.788;10.334;2023-05-07T02:57:15;9.68;;;7.50;;
28174;SDS011;59417;44.788;10.334;2023-05-07T02:59:41;9.27;;;7.70;;
28174;SDS011;59417;44.788;10.334;2023-05-07T03:02:07;9.57;;;7.20;;
28174;SDS011;59417;44.788;10.334;2023-05-07T03:04:33;9.82;;;7.15;;
28174;SDS011;59417;44.788;10.334;2023-05-07T03:06:58;10.48;;;6.25;;
28174;SDS011;59417;44.788;10.334;2023-05-07T03:09:24;8.57;;;6.28;;
28174;SDS011;59417;44.788;10.334;2023-05-07T03:11:50;7.50;;;5.82;;
28174;SDS011;59417;44.788;10.334;2023-05-07T03:14:15;7.47;;;5.63;;
28174;SDS011;59417;44.788;10.334;2023-05-07T03:16:41;6.68;;;5.47;;
28174;SDS011;59417;44.788;10.334;2023-05-07T03:19:07;9.55;;;5.97;;
28174;SDS011;59417;44.788;10.334;2023-05-07T03:21:32;6.22;;;5.53;;
28174;SDS011;59417;44.788;10.334;2023-05-07T03:23:59;9.73;;;6.32;;
28174;SDS011;59417;44.788;10.334;2023-05-07T03:26:25;6.20;;;5.53;;
28174;SDS011;59417;44.788;10.334;2023-05-07T03:28:51;10.75;;;5.70;;
28174;SDS011;59417;44.788;10.334;2023-05-07T03:31:17;8.02;;;5.63;;
28174;SDS011;59417;44.788;10.334;2023-05-07T03:33:53;8.93;;;6.32;;
28174;SDS011;59417;44.788;10.334;2023-05-07T03:36:21;13.68;;;7.28;;
28174;SDS011;59417;44.788;10.334;2023-05-07T03:38:47;10.13;;;6.70;;
28174;SDS011;59417;44.788;10.334;2023-05-07T03:41:17;8.25;;;6.18;;
28174;SDS011;59417;44.788;10.334;2023-05-07T03:43:44;9.43;;;7.15;;
28174;SDS011;59417;44.788;10.334;2023-05-07T03:46:12;7.57;;;6.68;;
28174;SDS011;59417;44.788;10.334;2023-05-07T03:48:37;9.05;;;7.32;;
28174;SDS011;59417;44.788;10.334;2023-05-07T03:51:04;11.30;;;7.57;;
28174;SDS011;59417;44.788;10.334;2023-05-07T03:53:32;12.07;;;7.13;;
28174;SDS011;59417;44.788;10.334;2023-05-07T03:55:57;13.57;;;10.90;;
28174;SDS011;59417;44.788;10.334;2023-05-07T03:58:23;15.57;;;8.82;;
28174;SDS011;59417;44.788;10.334;2023-05-07T04:00:51;10.45;;;7.72;;
28174;SDS011;59417;44.788;10.334;2023-05-07T04:03:23;14.30;;;8.75;;
28174;SDS011;59417;44.788;10.334;2023-05-07T04:05:48;9.98;;;6.97;;
28174;SDS011;59417;44.788;10.334;2023-05-07T04:08:14;13.95;;;7.03;;
28174;SDS011;59417;44.788;10.334;2023-05-07T04:10:45;7.30;;;6.32;;
28174;SDS011;59417;44.788;10.334;2023-05-07T04:13:11;7.18;;;6.35;;
28174;SDS011;59417;44.788;10.334;2023-05-07T04:15:38;7.65;;;6.32;;
28174;SDS011;59417;44.788;10.334;2023-05-07T04:18:07;7.63;;;6.78;;
28174;SDS011;59417;44.788;10.334;2023-05-07T04:20:34;7.35;;;6.63;;
28174;SDS011;59417;44.788;10.334;2023-05-07T04:23:02;8.02;;;5.97;;
28174;SDS011;59417;44.788;10.334;2023-05-07T04:25:29;9.85;;;6.30;;
28174;SDS011;59417;44.788;10.334;2023-05-07T04:28:01;9.23;;;6.15;;
28174;SDS011;59417;44.788;10.334;2023-05-07T04:30:28;6.03;;;5.43;;
28174;SDS011;59417;44.788;10.334;2023-05-07T04:32:54;5.88;;;4.65;;
28174;SDS011;59417;44.788;10.334;2023-05-07T04:35:22;8.27;;;5.05;;
28174;SDS011;59417;44.788;10.334;2023-05-07T04:37:48;5.22;;;4.03;;
28174;SDS011;59417;44.788;10.334;2023-05-07T04:40:14;6.65;;;5.18;;
28174;SDS011;59417;44.788;10.334;2023-05-07T04:42:42;5.40;;;4.90;;
28174;SDS011;59417;44.788;10.334;2023-05-07T04:45:08;5.60;;;4.90;;
28174;SDS011;59417;44.788;10.334;2023-05-07T04:47:36;4.20;;;3.80;;
28174;SDS011;59417;44.788;10.334;2023-05-07T04:50:02;4.93;;;3.92;;
28174;SDS011;59417;44.788;10.334;2023-05-07T04:52:28;7.00;;;4.47;;
28174;SDS011;59417;44.788;10.334;2023-05-07T04:54:53;6.35;;;4.25;;
28174;SDS011;59417;44.788;10.334;2023-05-07T04:57:20;6.03;;;4.43;;
28174;SDS011;59417;44.788;10.334;2023-05-07T04:59:46;5.22;;;4.72;;
28174;SDS011;59417;44.788;10.334;2023-05-07T05:02:12;9.93;;;4.75;;
28174;SDS011;59417;44.788;10.334;2023-05-07T05:04:38;8.30;;;4.72;;
28174;SDS011;59417;44.788;10.334;2023-05-07T05:07:04;4.93;;;4.45;;
28174;SDS011;59417;44.788;10.334;2023-05-07T05:09:30;9.10;;;5.30;;
28174;SDS011;59417;44.788;10.334;2023-05-07T05:11:56;8.93;;;4.95;;
28174;SDS011;59417;44.788;10.334;2023-05-07T05:14:22;5.65;;;5.13;;
28174;SDS011;59417;44.788;10.334;2023-05-07T05:16:49;7.90;;;5.05;;
28174;SDS011;59417;44.788;10.334;2023-05-07T05:19:15;7.75;;;5.45;;
28174;SDS011;59417;44.788;10.334;2023-05-07T05:21:42;7.88;;;6.15;;
28174;SDS011;59417;44.788;10.334;2023-05-07T05:24:09;7.38;;;5.90;;
28174;SDS011;59417;44.788;10.334;2023-05-07T05:26:35;7.43;;;6.22;;
28174;SDS011;59417;44.788;10.334;2023-05-07T05:29:01;10.50;;;6.63;;
28174;SDS011;59417;44.788;10.334;2023-05-07T05:31:29;9.35;;;6.90;;
28174;SDS011;59417;44.788;10.334;2023-05-07T05:33:55;10.02;;;6.90;;
28174;SDS011;59417;44.788;10.334;2023-05-07T05:36:21;7.78;;;6.45;;
28174;SDS011;59417;44.788;10.334;2023-05-07T05:38:48;8.82;;;6.35;;
28174;SDS011;59417;44.788;10.334;2023-05-07T05:41:15;7.35;;;6.18;;
28174;SDS011;59417;44.788;10.334;2023-05-07T05:43:41;7.72;;;6.25;;
28174;SDS011;59417;44.788;10.334;2023-05-07T05:46:07;7.22;;;6.45;;
28174;SDS011;59417;44.788;10.334;2023-05-07T05:48:34;7.63;;;6.82;;
28174;SDS011;59417;44.788;10.334;2023-05-07T05:51:01;8.43;;;7.13;;
28174;SDS011;59417;44.788;10.334;2023-05-07T05:53:26;10.65;;;7.25;;
28174;SDS011;59417;44.788;10.334;2023-05-07T05:55:53;10.00;;;7.80;;
28174;SDS011;59417;44.788;10.334;2023-05-07T05:58:18;11.45;;;8.90;;
28174;SDS011;59417;44.788;10.334;2023-05-07T06:00:50;12.68;;;9.90;;
28174;SDS011;59417;44.788;10.334;2023-05-07T06:03:19;13.65;;;10.18;;
28174;SDS011;59417;44.788;10.334;2023-05-07T06:05:46;15.50;;;10.50;;
28174;SDS011;59417;44.788;10.334;2023-05-07T06:08:12;13.80;;;10.88;;
28174;SDS011;59417;44.788;10.334;2023-05-07T06:10:38;14.30;;;11.43;;
28174;SDS011;59417;44.788;10.334;2023-05-07T06:13:06;15.55;;;13.00;;
28174;SDS011;59417;44.788;10.334;2023-05-07T06:15:33;15.15;;;13.48;;
28174;SDS011;59417;44.788;10.334;2023-05-07T06:18:05;19.25;;;13.68;;
28174;SDS011;59417;44.788;10.334;2023-05-07T06:20:31;17.45;;;13.38;;
28174;SDS011;59417;44.788;10.334;2023-05-07T06:22:58;22.25;;;14.70;;
28174;SDS011;59417;44.788;10.334;2023-05-07T06:25:24;21.63;;;15.35;;
28174;SDS011;59417;44.788;10.334;2023-05-07T06:27:49;22.48;;;16.38;;
28174;SDS011;59417;44.788;10.334;2023-05-07T06:30:15;20.33;;;15.35;;
28174;SDS011;59417;44.788;10.334;2023-05-07T06:32:41;22.80;;;17.73;;
28174;SDS011;59417;44.788;10.334;2023-05-07T06:35:07;23.05;;;18.33;;
28174;SDS011;59417;44.788;10.334;2023-05-07T06:37:36;27.67;;;21.05;;
28174;SDS011;59417;44.788;10.334;2023-05-07T06:40:05;33.55;;;20.80;;
28174;SDS011;59417;44.788;10.334;2023-05-07T06:42:35;26.85;;;20.05;;
28174;SDS011;59417;44.788;10.334;2023-05-07T06:45:18;23.23;;;19.58;;
28174;SDS011;59417;44.788;10.334;2023-05-07T06:47:45;27.52;;;20.40;;
28174;SDS011;59417;44.788;10.334;2023-05-07T06:50:10;26.85;;;21.30;;
28174;SDS011;59417;44.788;10.334;2023-05-07T06:52:37;28.52;;;20.92;;
28174;SDS011;59417;44.788;10.334;2023-05-07T06:55:04;23.63;;;19.63;;
28174;SDS011;59417;44.788;10.334;2023-05-07T06:57:30;30.25;;;22.15;;
28174;SDS011;59417;44.788;10.334;2023-05-07T06:59:56;27.20;;;20.90;;
28174;SDS011;59417;44.788;10.334;2023-05-07T07:02:22;29.33;;;21.52;;
28174;SDS011;59417;44.788;10.334;2023-05-07T07:04:48;30.13;;;21.92;;
28174;SDS011;59417;44.788;10.334;2023-05-07T07:07:14;24.63;;;18.50;;
28174;SDS011;59417;44.788;10.334;2023-05-07T07:09:42;29.15;;;20.92;;
28174;SDS011;59417;44.788;10.334;2023-05-07T07:12:09;26.55;;;19.63;;
28174;SDS011;59417;44.788;10.334;2023-05-07T07:14:37;29.02;;;18.27;;
28174;SDS011;59417;44.788;10.334;2023-05-07T07:17:02;25.95;;;19.13;;
28174;SDS011;59417;44.788;10.334;2023-05-07T07:19:30;26.08;;;19.00;;
28174;SDS011;59417;44.788;10.334;2023-05-07T07:21:57;25.00;;;18.45;;
28174;SDS011;59417;44.788;10.334;2023-05-07T07:24:23;22.30;;;17.63;;
28174;SDS011;59417;44.788;10.334;2023-05-07T07:26:53;22.42;;;18.63;;
28174;SDS011;59417;44.788;10.334;2023-05-07T07:29:20;22.63;;;16.92;;
28174;SDS011;59417;44.788;10.334;2023-05-07T07:31:48;20.52;;;16.33;;
28174;SDS011;59417;44.788;10.334;2023-05-07T07:34:17;21.73;;;15.27;;
28174;SDS011;59417;44.788;10.334;2023-05-07T07:36:42;21.15;;;16.38;;
28174;SDS011;59417;44.788;10.334;2023-05-07T07:39:08;19.02;;;15.70;;
28174;SDS011;59417;44.788;10.334;2023-05-07T07:41:34;17.40;;;15.43;;
28174;SDS011;59417;44.788;10.334;2023-05-07T07:44:00;23.60;;;16.45;;
28174;SDS011;59417;44.788;10.334;2023-05-07T07:46:29;19.67;;;15.38;;
28174;SDS011;59417;44.788;10.334;2023-05-07T07:48:54;20.65;;;16.40;;
28174;SDS011;59417;44.788;10.334;2023-05-07T07:51:23;23.50;;;18.90;;
28174;SDS011;59417;44.788;10.334;2023-05-07T07:53:49;23.73;;;17.85;;
28174;SDS011;59417;44.788;10.334;2023-05-07T07:56:16;23.73;;;18.13;;
28174;SDS011;59417;44.788;10.334;2023-05-07T07:58:42;21.13;;;17.13;;
28174;SDS011;59417;44.788;10.334;2023-05-07T08:01:07;20.67;;;17.23;;
28174;SDS011;59417;44.788;10.334;2023-05-07T08:03:33;22.80;;;18.08;;
28174;SDS011;59417;44.788;10.334;2023-05-07T08:06:00;18.88;;;15.57;;
28174;SDS011;59417;44.788;10.334;2023-05-07T08:08:26;21.90;;;16.80;;
28174;SDS011;59417;44.788;10.334;2023-05-07T08:10:53;21.80;;;17.20;;
28174;SDS011;59417;44.788;10.334;2023-05-07T08:13:26;21.70;;;18.73;;
28174;SDS011;59417;44.788;10.334;2023-05-07T08:15:52;20.65;;;16.02;;
28174;SDS011;59417;44.788;10.334;2023-05-07T08:18:18;21.90;;;17.65;;
28174;SDS011;59417;44.788;10.334;2023-05-07T08:20:44;19.60;;;16.60;;
28174;SDS011;59417;44.788;10.334;2023-05-07T08:23:14;21.88;;;17.15;;
28174;SDS011;59417;44.788;10.334;2023-05-07T08:25:42;20.23;;;15.93;;
28174;SDS011;59417;44.788;10.334;2023-05-07T08:28:08;24.35;;;16.38;;
28174;SDS011;59417;44.788;10.334;2023-05-07T08:30:34;24.52;;;18.17;;
28174;SDS011;59417;44.788;10.334;2023-05-07T08:33:00;21.00;;;17.08;;
28174;SDS011;59417;44.788;10.334;2023-05-07T08:35:26;19.83;;;15.70;;
28174;SDS011;59417;44.788;10.334;2023-05-07T08:37:53;18.08;;;15.52;;
28174;SDS011;59417;44.788;10.334;2023-05-07T08:40:24;19.73;;;16.42;;
28174;SDS011;59417;44.788;10.334;2023-05-07T08:42:54;17.05;;;15.30;;
28174;SDS011;59417;44.788;10.334;2023-05-07T08:45:22;20.30;;;16.70;;
28174;SDS011;59417;44.788;10.334;2023-05-07T08:47:51;22.17;;;17.02;;
28174;SDS011;59417;44.788;10.334;2023-05-07T08:50:23;19.85;;;16.55;;
28174;SDS011;59417;44.788;10.334;2023-05-07T08:52:50;20.27;;;17.20;;
28174;SDS011;59417;44.788;10.334;2023-05-07T08:55:17;17.42;;;15.63;;
28174;SDS011;59417;44.788;10.334;2023-05-07T08:57:44;17.88;;;15.63;;
28174;SDS011;59417;44.788;10.334;2023-05-07T09:00:11;21.20;;;15.57;;
28174;SDS011;59417;44.788;10.334;2023-05-07T09:02:39;19.58;;;14.85;;
28174;SDS011;59417;44.788;10.334;2023-05-07T09:05:06;18.58;;;14.00;;
28174;SDS011;59417;44.788;10.334;2023-05-07T09:07:33;16.88;;;13.70;;
28174;SDS011;59417;44.788;10.334;2023-05-07T09:10:01;12.75;;;11.38;;
28174;SDS011;59417;44.788;10.334;2023-05-07T09:12:32;15.57;;;13.20;;
28174;SDS011;59417;44.788;10.334;2023-05-07T09:14:58;14.70;;;12.35;;
28174;SDS011;59417;44.788;10.334;2023-05-07T09:17:25;19.75;;;11.88;;
28174;SDS011;59417;44.788;10.334;2023-05-07T09:19:51;20.10;;;12.30;;
28174;SDS011;59417;44.788;10.334;2023-05-07T09:22:19;17.35;;;12.27;;
28174;SDS011;59417;44.788;10.334;2023-05-07T09:24:53;14.43;;;12.00;;
28174;SDS011;59417;44.788;10.334;2023-05-07T09:27:23;13.82;;;12.35;;
28174;SDS011;59417;44.788;10.334;2023-05-07T09:29:49;18.90;;;11.98;;
28174;SDS011;59417;44.788;10.334;2023-05-07T09:32:15;11.73;;;10.48;;
28174;SDS011;59417;44.788;10.334;2023-05-07T09:34:41;12.18;;;9.48;;
28174;SDS011;59417;44.788;10.334;2023-05-07T09:37:08;9.30;;;7.90;;
28174;SDS011;59417;44.788;10.334;2023-05-07T09:42:11;16.42;;;12.02;;
28174;SDS011;59417;44.788;10.334;2023-05-07T09:44:41;13.43;;;11.55;;
28174;SDS011;59417;44.788;10.334;2023-05-07T09:47:12;12.68;;;10.68;;
28174;SDS011;59417;44.788;10.334;2023-05-07T09:49:46;14.23;;;11.57;;
28174;SDS011;59417;44.788;10.334;2023-05-07T09:52:16;16.00;;;11.07;;
28174;SDS011;59417;44.788;10.334;2023-05-07T09:54:48;9.82;;;8.82;;
28174;SDS011;59417;44.788;10.334;2023-05-07T10:02:16;12.73;;;8.98;;
28174;SDS011;59417;44.788;10.334;2023-05-07T10:04:47;12.27;;;9.13;;
28174;SDS011;59417;44.788;10.334;2023-05-07T10:07:16;14.13;;;12.15;;
28174;SDS011;59417;44.788;10.334;2023-05-07T10:09:44;12.82;;;11.32;;
28174;SDS011;59417;44.788;10.334;2023-05-07T10:12:20;14.52;;;11.27;;
28174;SDS011;59417;44.788;10.334;2023-05-07T10:14:47;13.02;;;11.10;;
28174;SDS011;59417;44.788;10.334;2023-05-07T10:17:15;13.52;;;11.63;;
28174;SDS011;59417;44.788;10.334;2023-05-07T10:19:44;13.95;;;11.63;;
28174;SDS011;59417;44.788;10.334;2023-05-07T10:22:11;13.05;;;11.57;;
28174;SDS011;59417;44.788;10.334;2023-05-07T10:24:42;13.18;;;10.23;;
28174;SDS011;59417;44.788;10.334;2023-05-07T10:27:15;17.10;;;14.40;;
28174;SDS011;59417;44.788;10.334;2023-05-07T10:32:35;14.65;;;12.75;;
28174;SDS011;59417;44.788;10.334;2023-05-07T10:35:10;17.40;;;14.18;;
28174;SDS011;59417;44.788;10.334;2023-05-07T10:38:00;20.00;;;14.77;;
28174;SDS011;59417;44.788;10.334;2023-05-07T10:40:29;21.33;;;15.60;;
28174;SDS011;59417;44.788;10.334;2023-05-07T10:42:56;18.30;;;15.60;;
28174;SDS011;59417;44.788;10.334;2023-05-07T10:45:26;17.83;;;13.18;;
28174;SDS011;59417;44.788;10.334;2023-05-07T10:48:08;16.73;;;14.03;;
28174;SDS011;59417;44.788;10.334;2023-05-07T10:50:38;17.67;;;14.50;;
28174;SDS011;59417;44.788;10.334;2023-05-07T10:58:49;15.18;;;11.38;;
28174;SDS011;59417;44.788;10.334;2023-05-07T11:04:37;13.45;;;11.18;;
28174;SDS011;59417;44.788;10.334;2023-05-07T11:07:29;14.10;;;11.23;;
28174;SDS011;59417;44.788;10.334;2023-05-07T11:10:06;12.52;;;10.40;;
28174;SDS011;59417;44.788;10.334;2023-05-07T11:15:13;16.33;;;12.63;;
28174;SDS011;59417;44.788;10.334;2023-05-07T11:17:55;13.77;;;11.90;;
28174;SDS011;59417;44.788;10.334;2023-05-07T11:20:44;13.35;;;10.40;;
28174;SDS011;59417;44.788;10.334;2023-05-07T11:24:03;16.55;;;13.05;;
28174;SDS011;59417;44.788;10.334;2023-05-07T11:26:27;13.57;;;9.82;;
28174;SDS011;59417;44.788;10.334;2023-05-07T11:28:55;17.07;;;9.90;;
28174;SDS011;59417;44.788;10.334;2023-05-07T11:31:25;12.27;;;10.20;;
28174;SDS011;59417;44.788;10.334;2023-05-07T11:33:54;13.30;;;10.80;;
28174;SDS011;59417;44.788;10.334;2023-05-07T11:36:22;12.73;;;9.98;;
28174;SDS011;59417;44.788;10.334;2023-05-07T11:38:50;12.25;;;11.00;;
28174;SDS011;59417;44.788;10.334;2023-05-07T11:41:16;16.23;;;12.35;;
28174;SDS011;59417;44.788;10.334;2023-05-07T11:43:56;12.80;;;9.57;;
28174;SDS011;59417;44.788;10.334;2023-05-07T11:46:22;10.30;;;9.18;;
28174;SDS011;59417;44.788;10.334;2023-05-07T11:48:48;11.02;;;9.80;;
28174;SDS011;59417;44.788;10.334;2023-05-07T11:51:14;11.55;;;8.90;;
28174;SDS011;59417;44.788;10.334;2023-05-07T11:53:44;9.55;;;8.43;;
28174;SDS011;59417;44.788;10.334;2023-05-07T11:56:11;9.98;;;8.98;;
28174;SDS011;59417;44.788;10.334;2023-05-07T11:58:38;12.20;;;10.90;;
28174;SDS011;59417;44.788;10.334;2023-05-07T12:01:06;10.15;;;8.35;;
28174;SDS011;59417;44.788;10.334;2023-05-07T12:03:33;9.02;;;7.53;;
28174;SDS011;59417;44.788;10.334;2023-05-07T12:05:59;8.20;;;6.60;;
28174;SDS011;59417;44.788;10.334;2023-05-07T12:08:25;10.23;;;6.35;;
28174;SDS011;59417;44.788;10.334;2023-05-07T12:10:50;9.95;;;8.10;;
28174;SDS011;59417;44.788;10.334;2023-05-07T12:13:20;11.50;;;8.57;;
28174;SDS011;59417;44.788;10.334;2023-05-07T12:15:51;8.35;;;7.53;;
28174;SDS011;59417;44.788;10.334;2023-05-07T12:18:17;8.75;;;7.82;;
28174;SDS011;59417;44.788;10.334;2023-05-07T12:20:43;9.32;;;8.32;;
28174;SDS011;59417;44.788;10.334;2023-05-07T12:23:10;9.50;;;7.47;;
28174;SDS011;59417;44.788;10.334;2023-05-07T12:25:37;8.80;;;7.35;;
28174;SDS011;59417;44.788;10.334;2023-05-07T12:28:03;14.45;;;11.55;;
28174;SDS011;59417;44.788;10.334;2023-05-07T12:30:38;12.82;;;9.85;;
28174;SDS011;59417;44.788;10.334;2023-05-07T12:33:05;10.27;;;8.50;;
28174;SDS011;59417;44.788;10.334;2023-05-07T12:35:31;9.25;;;7.15;;
28174;SDS011;59417;44.788;10.334;2023-05-07T12:38:01;8.32;;;7.53;;
28174;SDS011;59417;44.788;10.334;2023-05-07T12:40:42;8.85;;;7.63;;
28174;SDS011;59417;44.788;10.334;2023-05-07T12:43:14;12.80;;;8.15;;
28174;SDS011;59417;44.788;10.334;2023-05-07T12:45:50;10.70;;;9.60;;
28174;SDS011;59417;44.788;10.334;2023-05-07T12:48:17;8.60;;;7.70;;
28174;SDS011;59417;44.788;10.334;2023-05-07T12:50:44;9.43;;;7.72;;
28174;SDS011;59417;44.788;10.334;2023-05-07T12:53:10;8.15;;;6.43;;
28174;SDS011;59417;44.788;10.334;2023-05-07T12:55:50;7.35;;;6.65;;
28174;SDS011;59417;44.788;10.334;2023-05-07T12:58:18;7.75;;;5.78;;
28174;SDS011;59417;44.788;10.334;2023-05-07T13:00:52;9.25;;;6.28;;
28174;SDS011;59417;44.788;10.334;2023-05-07T13:03:27;8.25;;;6.35;;
28174;SDS011;59417;44.788;10.334;2023-05-07T13:05:55;7.57;;;6.88;;
28174;SDS011;59417;44.788;10.334;2023-05-07T13:08:27;11.93;;;8.48;;
28174;SDS011;59417;44.788;10.334;2023-05-07T13:10:54;8.07;;;6.50;;
28174;SDS011;59417;44.788;10.334;2023-05-07T13:13:21;13.00;;;8.48;;
28174;SDS011;59417;44.788;10.334;2023-05-07T13:15:47;10.85;;;7.68;;
28174;SDS011;59417;44.788;10.334;2023-05-07T13:18:13;11.02;;;6.72;;
28174;SDS011;59417;44.788;10.334;2023-05-07T13:20:38;9.07;;;7.75;;
28174;SDS011;59417;44.788;10.334;2023-05-07T13:23:04;11.32;;;8.60;;
28174;SDS011;59417;44.788;10.334;2023-05-07T13:25:30;17.38;;;14.43;;
28174;SDS011;59417;44.788;10.334;2023-05-07T13:27:56;12.60;;;10.50;;
28174;SDS011;59417;44.788;10.334;2023-05-07T13:30:22;12.95;;;10.55;;
28174;SDS011;59417;44.788;10.334;2023-05-07T13:32:48;13.15;;;8.95;;
28174;SDS011;59417;44.788;10.334;2023-05-07T13:35:15;9.40;;;7.55;;
28174;SDS011;59417;44.788;10.334;2023-05-07T13:37:42;8.13;;;6.97;;
28174;SDS011;59417;44.788;10.334;2023-05-07T13:40:07;11.55;;;8.68;;
28174;SDS011;59417;44.788;10.334;2023-05-07T13:42:33;10.07;;;7.72;;
28174;SDS011;59417;44.788;10.334;2023-05-07T13:44:59;7.95;;;6.85;;
28174;SDS011;59417;44.788;10.334;2023-05-07T13:47:25;6.90;;;6.13;;
28174;SDS011;59417;44.788;10.334;2023-05-07T13:49:51;8.35;;;7.47;;
28174;SDS011;59417;44.788;10.334;2023-05-07T13:52:17;8.65;;;7.85;;
28174;SDS011;59417;44.788;10.334;2023-05-07T13:54:43;10.73;;;8.43;;
28174;SDS011;59417;44.788;10.334;2023-05-07T13:57:08;8.23;;;7.22;;
28174;SDS011;59417;44.788;10.334;2023-05-07T13:59:34;8.48;;;7.25;;
28174;SDS011;59417;44.788;10.334;2023-05-07T14:02:00;7.07;;;5.90;;
28174;SDS011;59417;44.788;10.334;2023-05-07T14:04:26;10.98;;;6.88;;
28174;SDS011;59417;44.788;10.334;2023-05-07T14:06:51;9.52;;;6.13;;
28174;SDS011;59417;44.788;10.334;2023-05-07T14:09:17;7.63;;;5.20;;
28174;SDS011;59417;44.788;10.334;2023-05-07T14:11:43;8.43;;;6.10;;
28174;SDS011;59417;44.788;10.334;2023-05-07T14:14:08;5.93;;;5.32;;
28174;SDS011;59417;44.788;10.334;2023-05-07T14:16:37;7.35;;;6.05;;
28174;SDS011;59417;44.788;10.334;2023-05-07T14:19:03;5.78;;;5.18;;
28174;SDS011;59417;44.788;10.334;2023-05-07T14:21:28;6.18;;;5.40;;
28174;SDS011;59417;44.788;10.334;2023-05-07T14:23:55;7.63;;;5.30;;
28174;SDS011;59417;44.788;10.334;2023-05-07T14:26:21;6.35;;;4.65;;
28174;SDS011;59417;44.788;10.334;2023-05-07T14:28:48;5.72;;;4.97;;
28174;SDS011;59417;44.788;10.334;2023-05-07T14:31:14;7.45;;;5.93;;
28174;SDS011;59417;44.788;10.334;2023-05-07T14:33:40;7.65;;;5.47;;
28174;SDS011;59417;44.788;10.334;2023-05-07T14:36:06;5.72;;;5.00;;
28174;SDS011;59417;44.788;10.334;2023-05-07T14:38:31;9.13;;;5.07;;
28174;SDS011;59417;44.788;10.334;2023-05-07T14:40:58;7.40;;;6.68;;
28174;SDS011;59417;44.788;10.334;2023-05-07T14:43:23;8.85;;;5.82;;